sensor_id;sensor_type;location;lat;lon;timestamp;pressure;altitude;pressure_sealevel;temperature;humidity
32330;BME280;18807;52.434;13.238;2023-09-18T00:01:07;75063.59;;;-142.05;77.49
32330;BME280;18807;52.434;13.238;2023-09-18T00:08:42;75071.75;;;-142.05;77.54
32330;BME280;18807;52.434;13.238;2023-09-18T00:16:18;75067.69;;;-142.05;77.18
32330;BME280;18807;52.434;13.238;2023-09-18T00:23:52;75069.72;;;-142.05;77.17
32330;BME280;18807;52.434;13.238;2023-09-18T00:31:28;75067.69;;;-142.05;76.80
32330;BME280;18807;52.434;13.238;2023-09-18T00:39:02;75059.50;;;-142.05;76.85
32330;BME280;18807;52.434;13.238;2023-09-18T00:46:39;75061.56;;;-142.05;76.72
32330;BME280;18807;52.434;13.238;2023-09-18T00:54:14;75061.56;;;-142.05;76.69
32330;BME280;18807;52.434;13.238;2023-09-18T01:01:54;75061.56;;;-142.05;77.05
32330;BME280;18807;52.434;13.238;2023-09-18T01:09:30;75063.59;;;-142.05;77.55
32330;BME280;18807;52.434;13.238;2023-09-18T01:17:09;75071.75;;;-142.05;78.08
32330;BME280;18807;52.434;13.238;2023-09-18T01:24:48;75073.78;;;-142.05;78.76
32330;BME280;18807;52.434;13.238;2023-09-18T01:32:24;75079.91;;;-142.05;79.13
32330;BME280;18807;52.434;13.238;2023-09-18T01:40:05;75086.03;;;-142.05;79.42
32330;BME280;18807;52.434;13.238;2023-09-18T01:47:41;75092.16;;;-142.05;79.94
32330;BME280;18807;52.434;13.238;2023-09-18T01:55:17;75090.13;;;-142.05;80.73
32330;BME280;18807;52.434;13.238;2023-09-18T02:02:52;75079.91;;;-142.05;81.58
32330;BME280;18807;52.434;13.238;2023-09-18T02:10:52;75069.72;;;-142.05;83.87
32330;BME280;18807;52.434;13.238;2023-09-18T02:18:28;75073.78;;;-142.05;83.94
32330;BME280;18807;52.434;13.238;2023-09-18T02:26:04;75073.78;;;-142.05;83.96
32330;BME280;18807;52.434;13.238;2023-09-18T02:33:39;75075.84;;;-142.05;84.64
32330;BME280;18807;52.434;13.238;2023-09-18T02:41:15;75071.75;;;-142.05;85.12
32330;BME280;18807;52.434;13.238;2023-09-18T02:48:49;75077.88;;;-142.05;85.42
32330;BME280;18807;52.434;13.238;2023-09-18T02:56:26;75073.78;;;-142.05;85.92
32330;BME280;18807;52.434;13.238;2023-09-18T03:04:00;75069.72;;;-142.05;86.48
32330;BME280;18807;52.434;13.238;2023-09-18T03:11:36;75073.78;;;-142.05;87.29
32330;BME280;18807;52.434;13.238;2023-09-18T03:19:11;75079.91;;;-142.05;88.02
32330;BME280;18807;52.434;13.238;2023-09-18T03:26:49;75088.09;;;-142.05;88.34
32330;BME280;18807;52.434;13.238;2023-09-18T03:34:23;75081.97;;;-142.05;89.10
32330;BME280;18807;52.434;13.238;2023-09-18T03:42:01;75094.19;;;-142.05;89.82
32330;BME280;18807;52.434;13.238;2023-09-18T03:49:36;75100.31;;;-142.05;90.16
32330;BME280;18807;52.434;13.238;2023-09-18T03:57:14;75096.25;;;-142.05;90.60
32330;BME280;18807;52.434;13.238;2023-09-18T04:04:48;75094.19;;;-142.05;91.44
32330;BME280;18807;52.434;13.238;2023-09-18T04:12:26;75090.13;;;-142.05;92.06
32330;BME280;18807;52.434;13.238;2023-09-18T04:20:00;75096.25;;;-142.05;93.30
32330;BME280;18807;52.434;13.238;2023-09-18T04:27:38;75090.13;;;-142.05;94.50
32330;BME280;18807;52.434;13.238;2023-09-18T04:35:14;75090.13;;;-142.05;95.01
32330;BME280;18807;52.434;13.238;2023-09-18T04:42:51;75098.28;;;-142.05;97.56
32330;BME280;18807;52.434;13.238;2023-09-18T04:50:25;75092.16;;;-142.05;97.50
32330;BME280;18807;52.434;13.238;2023-09-18T04:58:02;75098.28;;;-142.05;97.97
32330;BME280;18807;52.434;13.238;2023-09-18T05:05:37;75092.16;;;-142.05;98.68
32330;BME280;18807;52.434;13.238;2023-09-18T05:13:16;75092.16;;;-142.05;100.00
32330;BME280;18807;52.434;13.238;2023-09-18T05:20:50;75090.13;;;-142.05;100.00
32330;BME280;18807;52.434;13.238;2023-09-18T05:28:26;75084.00;;;-142.05;100.00
32330;BME280;18807;52.434;13.238;2023-09-18T05:36:01;75061.56;;;-142.05;100.00
32330;BME280;18807;52.434;13.238;2023-09-18T05:43:40;75035.03;;;-142.05;98.18
32330;BME280;18807;52.434;13.238;2023-09-18T05:51:14;75006.47;;;-142.05;96.21
32330;BME280;18807;52.434;13.238;2023-09-18T05:58:50;74994.22;;;-142.05;95.68
32330;BME280;18807;52.434;13.238;2023-09-18T06:06:26;74975.88;;;-142.05;95.33
32330;BME280;18807;52.434;13.238;2023-09-18T06:14:02;74957.50;;;-142.05;95.33
32330;BME280;18807;52.434;13.238;2023-09-18T06:21:36;74939.13;;;-142.05;93.95
32330;BME280;18807;52.434;13.238;2023-09-18T06:29:17;74902.41;;;-142.05;92.25
32330;BME280;18807;52.434;13.238;2023-09-18T06:36:55;74867.72;;;-142.05;90.08
32330;BME280;18807;52.434;13.238;2023-09-18T06:44:33;74831.00;;;-142.05;87.45
32330;BME280;18807;52.434;13.238;2023-09-18T06:52:07;74798.38;;;-142.05;84.82
32330;BME280;18807;52.434;13.238;2023-09-18T06:59:43;74739.19;;;-142.05;82.52
32330;BME280;18807;52.434;13.238;2023-09-18T07:07:18;74704.50;;;-142.05;80.59
32330;BME280;18807;52.434;13.238;2023-09-18T07:15:00;74645.34;;;-142.05;76.62
32330;BME280;18807;52.434;13.238;2023-09-18T07:22:37;74602.50;;;-142.05;74.93
32330;BME280;18807;52.434;13.238;2023-09-18T07:30:15;74539.28;;;-142.05;72.64
32330;BME280;18807;52.434;13.238;2023-09-18T07:38:05;74498.47;;;-142.05;70.60
32330;BME280;18807;52.434;13.238;2023-09-18T07:45:44;74423.00;;;-142.05;69.45
32330;BME280;18807;52.434;13.238;2023-09-18T07:53:19;74353.63;;;-142.05;65.17
32330;BME280;18807;52.434;13.238;2023-09-18T08:00:56;74263.88;;;-142.05;62.00
32330;BME280;18807;52.434;13.238;2023-09-18T08:08:32;74172.09;;;-142.05;58.55
32330;BME280;18807;52.434;13.238;2023-09-18T08:16:08;74104.78;;;-142.05;57.63
32330;BME280;18807;52.434;13.238;2023-09-18T08:23:43;74037.47;;;-142.05;54.27
32330;BME280;18807;52.434;13.238;2023-09-18T08:31:19;74045.63;;;-142.05;55.22
32330;BME280;18807;52.434;13.238;2023-09-18T08:38:53;74006.88;;;-142.05;53.84
32330;BME280;18807;52.434;13.238;2023-09-18T08:46:29;73990.56;;;-142.05;54.84
32330;BME280;18807;52.434;13.238;2023-09-18T08:54:06;73943.63;;;-142.05;53.57
32330;BME280;18807;52.434;13.238;2023-09-18T09:01:42;73927.31;;;-142.05;52.77
32330;BME280;18807;52.434;13.238;2023-09-18T09:09:17;73902.84;;;-142.05;51.86
32330;BME280;18807;52.434;13.238;2023-09-18T09:16:56;73913.03;;;-142.05;52.66
32330;BME280;18807;52.434;13.238;2023-09-18T09:24:39;73892.66;;;-142.05;51.77
32330;BME280;18807;52.434;13.238;2023-09-18T09:32:18;73906.91;;;-142.05;52.62
32330;BME280;18807;52.434;13.238;2023-09-18T09:39:53;73898.75;;;-142.05;52.78
32330;BME280;18807;52.434;13.238;2023-09-18T09:47:30;73878.38;;;-142.05;52.72
32330;BME280;18807;52.434;13.238;2023-09-18T09:55:18;73866.13;;;-142.05;51.88
32330;BME280;18807;52.434;13.238;2023-09-18T10:02:58;73857.97;;;-142.05;51.78
32330;BME280;18807;52.434;13.238;2023-09-18T10:10:36;73845.72;;;-142.05;51.82
32330;BME280;18807;52.434;13.238;2023-09-18T10:18:22;73851.84;;;-142.05;53.69
32330;BME280;18807;52.434;13.238;2023-09-18T10:26:01;73851.84;;;-142.05;52.94
32330;BME280;18807;52.434;13.238;2023-09-18T10:33:39;73860.00;;;-142.05;51.27
32330;BME280;18807;52.434;13.238;2023-09-18T10:41:15;73876.31;;;-142.05;51.56
32330;BME280;18807;52.434;13.238;2023-09-18T10:48:53;73857.97;;;-142.05;52.02
32330;BME280;18807;52.434;13.238;2023-09-18T10:56:30;73825.34;;;-142.05;50.44
32330;BME280;18807;52.434;13.238;2023-09-18T11:04:19;73849.81;;;-142.05;51.74
32330;BME280;18807;52.434;13.238;2023-09-18T11:12:02;73857.97;;;-142.05;53.37
32330;BME280;18807;52.434;13.238;2023-09-18T11:19:40;73849.81;;;-142.05;54.14
32330;BME280;18807;52.434;13.238;2023-09-18T11:27:24;73849.81;;;-142.05;52.98
32330;BME280;18807;52.434;13.238;2023-09-18T11:35:08;73851.84;;;-142.05;53.17
32330;BME280;18807;52.434;13.238;2023-09-18T11:51:00;73845.72;;;-142.05;49.62
32330;BME280;18807;52.434;13.238;2023-09-18T11:58:56;73857.97;;;-142.05;49.81
32330;BME280;18807;52.434;13.238;2023-09-18T12:06:40;73833.50;;;-142.05;49.90
32330;BME280;18807;52.434;13.238;2023-09-18T12:14:18;73802.91;;;-142.05;48.77
32330;BME280;18807;52.434;13.238;2023-09-18T12:21:58;73786.59;;;-142.05;47.78
32330;BME280;18807;52.434;13.238;2023-09-18T12:29:33;73788.63;;;-142.05;48.36
32330;BME280;18807;52.434;13.238;2023-09-18T12:37:09;73813.09;;;-142.05;48.66
32330;BME280;18807;52.434;13.238;2023-09-18T12:44:46;73804.94;;;-142.05;48.91
32330;BME280;18807;52.434;13.238;2023-09-18T12:52:23;73829.41;;;-142.05;51.19
32330;BME280;18807;52.434;13.238;2023-09-18T12:59:58;73872.25;;;-142.05;51.18
32330;BME280;18807;52.434;13.238;2023-09-18T13:07:45;73874.28;;;-142.05;51.89
32330;BME280;18807;52.434;13.238;2023-09-18T13:15:25;73878.38;;;-142.05;51.90
32330;BME280;18807;52.434;13.238;2023-09-18T13:23:02;73886.53;;;-142.05;52.85
32330;BME280;18807;52.434;13.238;2023-09-18T13:30:38;73913.03;;;-142.05;56.19
32330;BME280;18807;52.434;13.238;2023-09-18T13:38:14;73935.47;;;-142.05;59.86
32330;BME280;18807;52.434;13.238;2023-09-18T13:45:49;73959.94;;;-142.05;63.14
32330;BME280;18807;52.434;13.238;2023-09-18T13:53:27;74002.78;;;-142.05;66.84
32330;BME280;18807;52.434;13.238;2023-09-18T14:01:03;73988.50;;;-142.05;70.14
32330;BME280;18807;52.434;13.238;2023-09-18T14:08:39;73980.34;;;-142.05;68.42
32330;BME280;18807;52.434;13.238;2023-09-18T14:16:14;73994.63;;;-142.05;67.58
32330;BME280;18807;52.434;13.238;2023-09-18T14:23:50;74010.94;;;-142.05;65.92
32330;BME280;18807;52.434;13.238;2023-09-18T14:31:25;74008.91;;;-142.05;63.71
32330;BME280;18807;52.434;13.238;2023-09-18T14:39:03;74010.94;;;-142.05;62.21
32330;BME280;18807;52.434;13.238;2023-09-18T14:46:37;74002.78;;;-142.05;62.31
32330;BME280;18807;52.434;13.238;2023-09-18T14:54:13;74004.81;;;-142.05;62.01
32330;BME280;18807;52.434;13.238;2023-09-18T15:01:49;74004.81;;;-142.05;61.22
32330;BME280;18807;52.434;13.238;2023-09-18T15:09:25;74008.91;;;-142.05;60.58
32330;BME280;18807;52.434;13.238;2023-09-18T15:17:00;74008.91;;;-142.05;59.72
32330;BME280;18807;52.434;13.238;2023-09-18T15:24:36;74013.00;;;-142.05;60.16
32330;BME280;18807;52.434;13.238;2023-09-18T15:32:10;74021.16;;;-142.05;60.83
32330;BME280;18807;52.434;13.238;2023-09-18T15:39:48;74033.38;;;-142.05;62.49
32330;BME280;18807;52.434;13.238;2023-09-18T15:47:25;74053.78;;;-142.05;63.00
32330;BME280;18807;52.434;13.238;2023-09-18T15:55:05;74055.81;;;-142.05;62.81
32330;BME280;18807;52.434;13.238;2023-09-18T16:02:40;74078.25;;;-142.05;63.49
32330;BME280;18807;52.434;13.238;2023-09-18T16:10:18;74092.53;;;-142.05;68.39
32330;BME280;18807;52.434;13.238;2023-09-18T16:17:54;74139.44;;;-142.05;72.67
32330;BME280;18807;52.434;13.238;2023-09-18T16:25:30;74155.78;;;-142.05;77.13
32330;BME280;18807;52.434;13.238;2023-09-18T16:33:08;74168.00;;;-142.05;80.38
32330;BME280;18807;52.434;13.238;2023-09-18T16:40:44;74192.47;;;-142.05;83.00
32330;BME280;18807;52.434;13.238;2023-09-18T16:48:18;74204.72;;;-142.05;86.69
32330;BME280;18807;52.434;13.238;2023-09-18T16:55:55;74231.25;;;-142.05;91.77
32330;BME280;18807;52.434;13.238;2023-09-18T17:03:29;74231.25;;;-142.05;94.40
32330;BME280;18807;52.434;13.238;2023-09-18T17:11:06;74253.69;;;-142.05;97.51
32330;BME280;18807;52.434;13.238;2023-09-18T17:18:41;74267.97;;;-142.05;98.76
32330;BME280;18807;52.434;13.238;2023-09-18T17:26:21;74274.06;;;-142.05;98.87
32330;BME280;18807;52.434;13.238;2023-09-18T17:33:56;74270.00;;;-142.05;98.65
32330;BME280;18807;52.434;13.238;2023-09-18T17:41:34;74265.91;;;-142.05;99.66
32330;BME280;18807;52.434;13.238;2023-09-18T17:49:08;74282.25;;;-142.05;100.00
32330;BME280;18807;52.434;13.238;2023-09-18T17:57:06;74300.59;;;-142.05;100.00
32330;BME280;18807;52.434;13.238;2023-09-18T18:04:43;74312.84;;;-142.05;100.00
32330;BME280;18807;52.434;13.238;2023-09-18T18:12:20;74333.22;;;-142.05;100.00
32330;BME280;18807;52.434;13.238;2023-09-18T18:19:54;74347.50;;;-142.05;100.00
32330;BME280;18807;52.434;13.238;2023-09-18T18:27:30;74339.34;;;-142.05;100.00
32330;BME280;18807;52.434;13.238;2023-09-18T18:35:07;74353.63;;;-142.05;100.00
32330;BME280;18807;52.434;13.238;2023-09-18T18:42:44;74376.06;;;-142.05;100.00
32330;BME280;18807;52.434;13.238;2023-09-18T18:50:21;74378.13;;;-142.05;100.00
32330;BME280;18807;52.434;13.238;2023-09-18T18:57:58;74376.06;;;-142.05;98.68
32330;BME280;18807;52.434;13.238;2023-09-18T19:05:32;74372.00;;;-142.05;97.13
32330;BME280;18807;52.434;13.238;2023-09-18T19:13:10;74382.19;;;-142.05;97.59
32330;BME280;18807;52.434;13.238;2023-09-18T19:21:02;74384.22;;;-142.05;98.17
32330;BME280;18807;52.434;13.238;2023-09-18T19:28:41;74386.28;;;-142.05;98.87
32330;BME280;18807;52.434;13.238;2023-09-18T19:36:16;74392.41;;;-142.05;99.25
32330;BME280;18807;52.434;13.238;2023-09-18T19:43:54;74406.66;;;-142.05;100.00
32330;BME280;18807;52.434;13.238;2023-09-18T19:51:29;74410.75;;;-142.05;100.00
32330;BME280;18807;52.434;13.238;2023-09-18T19:59:07;74425.03;;;-142.05;100.00
32330;BME280;18807;52.434;13.238;2023-09-18T20:06:42;74439.31;;;-142.05;100.00
32330;BME280;18807;52.434;13.238;2023-09-18T20:14:18;74443.38;;;-142.05;100.00
32330;BME280;18807;52.434;13.238;2023-09-18T20:22:03;74459.72;;;-142.05;100.00
32330;BME280;18807;52.434;13.238;2023-09-18T20:29:42;74469.91;;;-142.05;100.00
32330;BME280;18807;52.434;13.238;2023-09-18T20:37:20;74482.16;;;-142.05;100.00
32330;BME280;18807;52.434;13.238;2023-09-18T20:44:56;74478.06;;;-142.05;100.00
32330;BME280;18807;52.434;13.238;2023-09-18T20:52:32;74494.38;;;-142.05;100.00
32330;BME280;18807;52.434;13.238;2023-09-18T21:00:11;74504.59;;;-142.05;100.00
32330;BME280;18807;52.434;13.238;2023-09-18T21:07:46;74510.72;;;-142.05;100.00
32330;BME280;18807;52.434;13.238;2023-09-18T21:15:22;74529.06;;;-142.05;100.00
32330;BME280;18807;52.434;13.238;2023-09-18T21:23:00;74547.44;;;-142.05;100.00
32330;BME280;18807;52.434;13.238;2023-09-18T21:30:37;74551.50;;;-142.05;100.00
32330;BME280;18807;52.434;13.238;2023-09-18T21:38:11;74563.75;;;-142.05;100.00
32330;BME280;18807;52.434;13.238;2023-09-18T21:45:50;74584.16;;;-142.05;100.00
32330;BME280;18807;52.434;13.238;2023-09-18T21:53:25;74584.16;;;-142.05;100.00
32330;BME280;18807;52.434;13.238;2023-09-18T22:01:01;74584.16;;;-142.05;100.00
32330;BME280;18807;52.434;13.238;2023-09-18T22:08:38;74584.16;;;-142.05;100.00
32330;BME280;18807;52.434;13.238;2023-09-18T22:16:15;74600.47;;;-142.05;100.00
32330;BME280;18807;52.434;13.238;2023-09-18T22:23:49;74614.75;;;-142.05;100.00
32330;BME280;18807;52.434;13.238;2023-09-18T22:31:26;74614.75;;;-142.05;100.00
32330;BME280;18807;52.434;13.238;2023-09-18T22:54:57;74645.34;;;-142.05;100.00
32330;BME280;18807;52.434;13.238;2023-09-18T23:02:34;74641.28;;;-142.05;100.00
32330;BME280;18807;52.434;13.238;2023-09-18T23:10:18;74647.41;;;-142.05;100.00
32330;BME280;18807;52.434;13.238;2023-09-18T23:17:52;74647.41;;;-142.05;100.00
32330;BME280;18807;52.434;13.238;2023-09-18T23:25:30;74647.41;;;-142.05;100.00
32330;BME280;18807;52.434;13.238;2023-09-18T23:33:06;74655.56;;;-142.05;100.00
32330;BME280;18807;52.434;13.238;2023-09-18T23:40:45;74663.72;;;-142.05;100.00
32330;BME280;18807;52.434;13.238;2023-09-18T23:48:19;74667.78;;;-142.05;100.00
32330;BME280;18807;52.434;13.238;2023-09-18T23:55:57;74675.94;;;-142.05;100.00
